Camargo, Brazil
Current Conditions -  °F | °C
As of 7:00 AM on Friday 31 Oct 2014 (Local Time) from SBPF Reporting Station
Moderate Fog Moderate Fog  
Wind Chill: 63°   Ceiling: 100
Heat Index: 63°   Visibility: 0.75mi
Dew Point: 63°   Wind: 12mph
Humidity: 100%   Direction: 90°E
Pressure: 29.91"   Gusts: NA
Location:  28.59°S, 52.2°W
Report Text: SBPF 310900Z 09010KT 1200 BR VCFG VV001 17/17 Q1013
Loading
Personal Weather Stations






























Interactive Weather Map
Tropical Storm Tracking
New forecast layout! Learn more

10-Day Weather Forecast

Advertisements
Track Severe Weather on mobile